Terminal Aerodrome Forecast
Issued by NWS

Home | Current Version | Previous Version | Text Only | Print | Product List | Glossary On
Versions: 1 2 3 4 5 6 7 8 9 10 11 12 13 14 15
000
FTUS41 KBOX 201741
TAFACK
TAF
KACK 201741Z 2018/2118 34016KT P6SM BKN040
     FM201900 36015G24KT P6SM BKN040
     FM202100 36016G26KT P6SM SCT035
     FM210200 01013G22KT P6SM SCT025
     FM211300 01010KT P6SM SCT250=

USA.gov is the U.S. government's official web portal to all federal, state and local government web resources and services.